createdAt,value
2017-07-15T00:00:52.443Z,12.1
2017-07-15T00:02:11.124Z,12.1
2017-07-15T00:03:29.814Z,12.1
2017-07-15T00:04:48.525Z,12.1
2017-07-15T00:06:07.233Z,12.1
2017-07-15T00:07:25.909Z,12.1
2017-07-15T00:08:44.605Z,12.1
2017-07-15T00:10:03.291Z,12.1
2017-07-15T00:11:21.967Z,12.1
2017-07-15T00:12:40.639Z,12.1
2017-07-15T00:13:59.329Z,12.1
2017-07-15T00:15:18.016Z,12.1
2017-07-15T00:16:36.730Z,12.1
2017-07-15T00:17:55.415Z,12.1
2017-07-15T00:19:14.152Z,12.1
2017-07-15T00:20:32.862Z,12.1
2017-07-15T00:21:51.573Z,12.1
2017-07-15T00:23:10.294Z,12.1
2017-07-15T00:24:29.007Z,12.1
2017-07-15T00:25:47.685Z,12.1
2017-07-15T00:27:06.385Z,12.1
2017-07-15T00:28:25.062Z,12.1
2017-07-15T00:29:43.822Z,12.1
2017-07-15T00:31:02.533Z,12.1
2017-07-15T00:32:21.222Z,12.1
2017-07-15T00:33:39.904Z,12.1
2017-07-15T00:34:58.584Z,12.1
2017-07-15T00:36:17.309Z,12.1
2017-07-15T00:37:36.014Z,12.1
2017-07-15T00:38:54.698Z,12.1
2017-07-15T00:40:13.393Z,12.1
2017-07-15T00:41:32.127Z,12.2
2017-07-15T00:42:50.857Z,12.2
2017-07-15T00:44:09.573Z,12.2
2017-07-15T00:45:28.268Z,12.2
2017-07-15T00:46:46.948Z,12.3
2017-07-15T00:48:05.668Z,12.3
2017-07-15T00:49:24.391Z,12.3
2017-07-15T00:50:43.129Z,12.3
2017-07-15T00:52:01.817Z,12.3
2017-07-15T00:53:20.542Z,12.3
2017-07-15T00:54:39.208Z,12.3
2017-07-15T00:55:57.950Z,12.3
2017-07-15T00:57:16.651Z,12.4
2017-07-15T00:58:35.343Z,12.3
2017-07-15T00:59:54.041Z,12.3
2017-07-15T01:01:12.713Z,12.1
2017-07-15T01:02:31.463Z,11.6
2017-07-15T01:03:50.186Z,11.3
2017-07-15T01:05:08.895Z,11.1
2017-07-15T01:06:27.583Z,11
2017-07-15T01:07:46.267Z,10.9
2017-07-15T01:09:04.977Z,10.9
2017-07-15T01:10:23.654Z,10.8
2017-07-15T01:11:42.412Z,10.7
2017-07-15T01:13:01.115Z,10.7
2017-07-15T01:14:19.799Z,10.8
2017-07-15T01:15:38.500Z,10.8
2017-07-15T01:16:57.192Z,10.7
2017-07-15T01:18:15.869Z,10.7
2017-07-15T01:19:34.573Z,10.7
2017-07-15T01:20:53.282Z,10.7
2017-07-15T01:22:11.960Z,10.7
2017-07-15T01:23:30.632Z,10.8
2017-07-15T01:24:49.321Z,10.7
2017-07-15T01:26:08.007Z,10.7
2017-07-15T01:27:26.743Z,10.7
2017-07-15T01:28:45.432Z,10.7
2017-07-15T01:30:04.151Z,10.6
2017-07-15T01:31:22.833Z,10.5
2017-07-15T01:32:41.565Z,10.4
2017-07-15T01:34:00.242Z,10.4
2017-07-15T01:35:18.953Z,10.4
2017-07-15T01:36:37.677Z,10.4
2017-07-15T01:37:56.417Z,10.4
2017-07-15T01:39:15.096Z,10.5
2017-07-15T01:40:33.790Z,10.6
2017-07-15T01:41:52.501Z,10.6
2017-07-15T01:43:11.226Z,10.6
2017-07-15T01:44:29.913Z,10.6
2017-07-15T01:45:48.622Z,10.6
2017-07-15T01:47:07.356Z,10.6
2017-07-15T01:48:26.103Z,10.6
2017-07-15T01:49:44.798Z,10.6
2017-07-15T01:51:03.505Z,10.5
2017-07-15T01:52:22.187Z,10.4
2017-07-15T01:53:40.881Z,10.4
2017-07-15T01:54:59.560Z,10.4
2017-07-15T01:56:18.242Z,10.4
2017-07-15T01:57:36.923Z,10.4
2017-07-15T01:58:55.634Z,10.4
2017-07-15T02:00:14.325Z,10.4
2017-07-15T02:01:33.018Z,10.4
2017-07-15T02:02:51.686Z,10.4
2017-07-15T02:04:10.375Z,10.4
2017-07-15T02:05:29.121Z,10.4
2017-07-15T02:06:47.802Z,10.4
2017-07-15T02:08:06.513Z,10.3
2017-07-15T02:09:25.205Z,10.3
2017-07-15T02:10:43.906Z,10.3
2017-07-15T02:12:02.578Z,10.2
2017-07-15T02:13:21.306Z,10.3
2017-07-15T02:14:39.986Z,10.3
2017-07-15T02:15:58.660Z,10.3
2017-07-15T02:17:17.422Z,10.4
2017-07-15T02:18:36.099Z,10.4
2017-07-15T02:19:54.839Z,10.4
2017-07-15T02:21:13.573Z,10.3
2017-07-15T02:22:32.313Z,10.3
2017-07-15T02:23:50.988Z,10.3
2017-07-15T02:25:09.671Z,10.2
2017-07-15T02:26:28.386Z,10.2
2017-07-15T02:27:47.054Z,10.3
2017-07-15T02:29:05.734Z,10.3
2017-07-15T02:30:24.444Z,10.3
2017-07-15T02:31:43.128Z,10.3
2017-07-15T02:33:01.824Z,10.3
2017-07-15T02:34:20.503Z,10.3
2017-07-15T02:35:39.192Z,10.1
2017-07-15T02:36:57.868Z,10
2017-07-15T02:38:16.541Z,9.9
2017-07-15T02:39:35.208Z,9.9
2017-07-15T02:40:53.913Z,9.9
2017-07-15T02:42:12.569Z,9.9
2017-07-15T02:43:31.254Z,9.8
2017-07-15T02:44:49.962Z,9.7
2017-07-15T02:46:08.684Z,9.7
2017-07-15T02:47:27.383Z,9.6
2017-07-15T02:48:46.062Z,9.5
2017-07-15T02:50:04.720Z,9.4
2017-07-15T02:51:23.443Z,9.3
2017-07-15T02:52:42.155Z,9.3
2017-07-15T02:54:00.834Z,9.3
2017-07-15T02:55:19.547Z,9.3
2017-07-15T02:56:38.224Z,9.3
2017-07-15T02:57:56.929Z,9.2
2017-07-15T02:59:15.578Z,9.2
2017-07-15T03:00:34.244Z,9.2
2017-07-15T03:01:52.917Z,9.2
2017-07-15T03:03:11.596Z,9.2
2017-07-15T03:04:30.326Z,9.2
2017-07-15T03:05:49.046Z,9.1
2017-07-15T03:07:07.712Z,9.1
2017-07-15T03:08:26.379Z,9.1
2017-07-15T03:09:45.040Z,9.1
2017-07-15T03:11:03.695Z,9.1
2017-07-15T03:12:22.446Z,9
2017-07-15T03:13:41.102Z,9
2017-07-15T03:14:59.765Z,9
2017-07-15T03:16:18.414Z,9
2017-07-15T03:17:37.088Z,9
2017-07-15T03:18:55.803Z,9
2017-07-15T03:20:14.474Z,9
2017-07-15T03:21:33.133Z,9.1
2017-07-15T03:22:51.818Z,9.1
2017-07-15T03:24:10.507Z,9.1
2017-07-15T03:25:29.215Z,9.1
2017-07-15T03:26:47.929Z,9.1
2017-07-15T03:28:06.649Z,9.1
2017-07-15T03:29:25.350Z,9.1
2017-07-15T03:30:44.086Z,9.2
2017-07-15T03:32:02.748Z,9.2
2017-07-15T03:33:21.423Z,9.2
2017-07-15T03:34:40.133Z,9.1
2017-07-15T03:35:58.831Z,9
2017-07-15T03:37:17.542Z,9
2017-07-15T03:38:36.267Z,9
2017-07-15T03:39:54.921Z,9
2017-07-15T03:41:13.581Z,9.1
2017-07-15T03:42:32.297Z,9.1
2017-07-15T03:43:50.962Z,9.1
2017-07-15T03:45:09.616Z,9.1
2017-07-15T03:46:28.309Z,9.2
2017-07-15T03:47:47.013Z,9.2
2017-07-15T03:49:05.692Z,9.2
2017-07-15T03:50:24.351Z,9.2
2017-07-15T03:51:43.038Z,9.2
2017-07-15T03:53:01.697Z,9.2
2017-07-15T03:54:20.365Z,9.2
2017-07-15T03:55:39.058Z,9.2
2017-07-15T03:56:57.721Z,9.2
2017-07-15T03:58:16.425Z,9.2
2017-07-15T03:59:35.139Z,9.2
2017-07-15T04:00:53.816Z,9.2
2017-07-15T04:02:12.482Z,9.2
2017-07-15T04:03:31.144Z,9.2
2017-07-15T04:04:49.823Z,9.2
2017-07-15T04:06:08.478Z,9.2
2017-07-15T04:07:27.147Z,9.2
2017-07-15T04:08:45.819Z,9.2
2017-07-15T04:10:04.493Z,9.3
2017-07-15T04:11:23.161Z,9.3
2017-07-15T04:12:41.827Z,9.4
2017-07-15T04:14:00.500Z,9.4
2017-07-15T04:15:19.177Z,9.4
2017-07-15T04:16:37.843Z,9.4
2017-07-15T04:17:56.544Z,9.4
2017-07-15T04:19:15.224Z,9.4
2017-07-15T04:20:33.972Z,9.4
2017-07-15T04:21:52.632Z,9.4
2017-07-15T04:23:11.337Z,9.4
2017-07-15T04:24:30.035Z,9.4
2017-07-15T04:25:48.708Z,9.5
2017-07-15T04:27:07.449Z,9.5
2017-07-15T04:28:26.133Z,9.6
2017-07-15T04:29:44.812Z,9.6
2017-07-15T04:31:03.474Z,9.5
2017-07-15T04:32:22.141Z,9.5
2017-07-15T04:33:40.831Z,9.5
2017-07-15T04:34:59.504Z,9.5
2017-07-15T04:36:18.192Z,9.5
2017-07-15T04:37:36.841Z,9.5
2017-07-15T04:38:55.561Z,9.5
2017-07-15T04:40:14.277Z,9.5
2017-07-15T04:41:32.964Z,9.6
2017-07-15T04:42:51.643Z,9.7
2017-07-15T04:44:10.317Z,9.9
2017-07-15T04:45:29.052Z,10.2
2017-07-15T04:46:47.758Z,10.5
2017-07-15T04:48:06.442Z,10.7
2017-07-15T04:49:25.122Z,11
2017-07-15T04:50:43.864Z,11.1
2017-07-15T04:52:02.574Z,11.3
2017-07-15T04:53:21.304Z,11.4
2017-07-15T04:54:40.000Z,11.5
2017-07-15T04:55:58.734Z,11.5
2017-07-15T04:57:17.474Z,11.5
2017-07-15T04:58:36.196Z,11.6
2017-07-15T04:59:54.883Z,11.7
2017-07-15T05:01:13.567Z,11.8
2017-07-15T05:02:32.279Z,11.8
2017-07-15T05:03:50.974Z,11.8
2017-07-15T05:05:09.653Z,11.8
2017-07-15T05:06:28.364Z,11.6
2017-07-15T05:07:47.101Z,11.5
2017-07-15T05:09:05.775Z,11.6
2017-07-15T05:10:24.506Z,11.7
2017-07-15T05:11:43.176Z,11.9
2017-07-15T05:13:01.879Z,11.9
2017-07-15T05:14:20.602Z,11.9
2017-07-15T05:15:39.282Z,11.8
2017-07-15T05:16:57.972Z,11.6
2017-07-15T05:18:16.667Z,11.4
2017-07-15T05:19:35.379Z,11.2
2017-07-15T05:20:54.082Z,11.1
2017-07-15T05:22:12.762Z,11
2017-07-15T05:23:31.459Z,10.9
2017-07-15T05:24:50.135Z,10.9
2017-07-15T05:26:08.852Z,10.9
2017-07-15T05:27:27.567Z,10.9
2017-07-15T05:28:46.246Z,11
2017-07-15T05:30:04.919Z,11
2017-07-15T05:31:23.629Z,11
2017-07-15T05:32:42.361Z,11.1
2017-07-15T05:34:01.118Z,11.1
2017-07-15T05:35:19.797Z,11.1
2017-07-15T05:36:38.479Z,11.2
2017-07-15T05:37:57.200Z,11.2
2017-07-15T05:39:15.875Z,11.3
2017-07-15T05:40:34.566Z,11.5
2017-07-15T05:41:53.259Z,11.8
2017-07-15T05:43:11.992Z,12.1
2017-07-15T05:44:30.695Z,12.4
2017-07-15T05:45:49.377Z,12.6
2017-07-15T05:47:08.064Z,12.7
2017-07-15T05:48:26.748Z,12.7
2017-07-15T05:49:45.423Z,12.8
2017-07-15T05:51:04.167Z,12.6
2017-07-15T05:52:22.899Z,12.6
2017-07-15T05:53:41.579Z,12.5
2017-07-15T05:55:00.266Z,12.4
2017-07-15T05:56:18.970Z,12.2
2017-07-15T05:57:37.684Z,12.1
2017-07-15T05:58:56.365Z,11.9
2017-07-15T06:00:15.053Z,11.8
2017-07-15T06:01:33.733Z,11.7
2017-07-15T06:02:52.444Z,11.8
2017-07-15T06:04:11.115Z,11.9
2017-07-15T06:05:29.799Z,11.9
2017-07-15T06:06:48.483Z,12
2017-07-15T06:08:07.167Z,12.2
2017-07-15T06:09:25.835Z,12.2
2017-07-15T06:10:44.593Z,12.1
2017-07-15T06:12:03.316Z,11.9
2017-07-15T06:13:22.030Z,11.7
2017-07-15T06:14:40.707Z,11.6
2017-07-15T06:15:59.444Z,11.7
2017-07-15T06:17:18.159Z,11.7
2017-07-15T06:18:36.839Z,11.7
2017-07-15T06:19:55.562Z,11.9
2017-07-15T06:21:14.300Z,12.1
2017-07-15T06:22:32.971Z,12.2
2017-07-15T06:23:51.640Z,12
2017-07-15T06:25:10.263Z,11.9
2017-07-15T06:26:29.006Z,11.9
2017-07-15T06:27:47.729Z,12
2017-07-15T06:29:06.449Z,12.3
2017-07-15T06:30:25.147Z,12.6
2017-07-15T06:31:43.922Z,12.7
2017-07-15T06:33:02.612Z,12.9
2017-07-15T06:34:21.347Z,13.1
2017-07-15T06:35:40.030Z,13.3
2017-07-15T06:36:58.722Z,13.2
2017-07-15T06:38:17.427Z,13.1
2017-07-15T06:39:36.144Z,13
2017-07-15T06:40:54.811Z,12.9
2017-07-15T06:42:13.523Z,12.7
2017-07-15T06:43:32.203Z,12.5
2017-07-15T06:44:50.919Z,12.5
2017-07-15T06:46:09.599Z,12.7
2017-07-15T06:47:28.294Z,12.7
2017-07-15T06:48:47.002Z,12.7
2017-07-15T06:50:05.683Z,13
2017-07-15T06:51:24.367Z,13.4
2017-07-15T06:52:43.064Z,13.6
2017-07-15T06:54:01.753Z,13.7
2017-07-15T06:55:20.437Z,13.9
2017-07-15T06:56:39.142Z,13.9
2017-07-15T06:57:57.881Z,14.2
2017-07-15T06:59:16.568Z,14.3
2017-07-15T07:00:35.270Z,14.1
2017-07-15T07:01:53.981Z,14.1
2017-07-15T07:03:12.681Z,14.1
2017-07-15T07:04:31.352Z,14.2
2017-07-15T07:05:50.023Z,14.5
2017-07-15T07:07:08.770Z,14.8
2017-07-15T07:08:27.479Z,14.8
2017-07-15T07:09:46.185Z,15
2017-07-15T07:11:04.889Z,15
2017-07-15T07:12:23.605Z,15
2017-07-15T07:13:42.359Z,15.1
2017-07-15T07:15:01.032Z,15.5
2017-07-15T07:16:19.753Z,15.6
2017-07-15T07:17:38.435Z,15.6
2017-07-15T07:18:57.122Z,15.6
2017-07-15T07:20:15.797Z,15.7
2017-07-15T07:21:34.480Z,15.5
2017-07-15T07:22:53.158Z,15.2
2017-07-15T07:24:11.889Z,14.9
2017-07-15T07:25:30.572Z,15
2017-07-15T07:26:49.242Z,15.1
2017-07-15T07:28:07.917Z,15.2
2017-07-15T07:29:26.615Z,15.1
2017-07-15T07:30:45.330Z,14.9
2017-07-15T07:32:04.071Z,14.7
2017-07-15T07:33:22.741Z,14.8
